Time;durP1;ratioP1;P1;durP2;ratioP2;P2;SDS_P1;SDS_P2;PMS_P1;PMS_P2;Temp;Humidity;BMP_temperature;BMP_pressure;BME280_temperature;BME280_humidity;BME280_pressure;Samples;Min_cycle;Max_cycle;Signal;HPM_P1;HPM_P2
2021/03/27 00:01:42;;;;;;;98.05;49.50;;;;;;;4.78;68.01;98792.23;115082;1196;24758;-77
2021/03/27 00:04:20;;;;;;;109.38;51.83;;;;;;;4.79;67.47;98799.28;115009;1202;23087;-76
2021/03/27 00:07:01;;;;;;;99.27;46.10;;;;;;;4.82;67.88;98789.97;114786;1201;23098;-76
2021/03/27 00:09:34;;;;;;;85.13;42.43;;;;;;;4.81;68.09;98793.69;114782;1201;23141;-77
2021/03/27 00:12:20;;;;;;;101.27;44.20;;;;;;;4.73;68.07;98792.81;115121;1202;23167;-76
2021/03/27 00:14:53;;;;;;;68.97;32.97;;;;;;;4.57;69.30;98803.94;115117;1196;24844;-76
2021/03/27 00:17:33;;;;;;;84.77;38.20;;;;;;;4.31;69.14;98804.58;115130;1201;26567;-76
2021/03/27 00:20:14;;;;;;;105.45;47.40;;;;;;;4.06;70.43;98812.26;115086;1201;23083;-77
2021/03/27 00:22:48;;;;;;;100.60;48.27;;;;;;;3.95;70.48;98802.84;115036;1197;23097;-76
2021/03/27 00:25:28;;;;;;;113.00;54.73;;;;;;;3.95;71.17;98805.53;115073;1202;23123;-76
2021/03/27 00:28:04;;;;;;;94.70;43.80;;;;;;;3.96;71.12;98808.01;115097;1197;23087;-77
2021/03/27 00:30:39;;;;;;;104.15;48.55;;;;;;;4.01;71.79;98801.23;115093;1202;23097;-77
2021/03/27 00:33:07;;;;;;;108.33;48.47;;;;;;;4.04;71.37;98796.28;115183;1202;23233;-77
2021/03/27 00:35:41;;;;;;;97.47;47.70;;;;;;;4.07;71.49;98801.29;115041;1202;23112;-76
2021/03/27 00:38:14;;;;;;;111.27;52.00;;;;;;;4.11;71.31;98794.47;115129;1202;24658;-76
2021/03/27 00:40:45;;;;;;;108.77;51.37;;;;;;;4.13;71.61;98792.41;115096;1202;23113;-76
2021/03/27 00:43:38;;;;;;;107.90;50.80;;;;;;;4.16;71.28;98791.17;114785;1202;23125;-76
2021/03/27 00:46:08;;;;;;;112.13;53.03;;;;;;;4.19;70.85;98782.70;114954;1200;26995;-76
2021/03/27 00:48:58;;;;;;;112.10;53.17;;;;;;;4.25;71.33;98789.16;115081;1200;26156;-76
2021/03/27 00:51:35;;;;;;;103.23;48.07;;;;;;;4.28;71.23;98788.78;114763;1202;27316;-76
2021/03/27 00:54:31;;;;;;;87.90;41.95;;;;;;;4.28;71.08;98786.91;115101;1201;23099;-76
2021/03/27 00:57:01;;;;;;;109.60;51.33;;;;;;;4.21;71.71;98783.34;115057;1201;23099;-76
2021/03/27 00:59:34;;;;;;;106.60;50.05;;;;;;;4.22;71.45;98785.02;115042;1200;23242;-76
2021/03/27 01:02:13;;;;;;;112.63;50.10;;;;;;;4.22;71.54;98784.19;115064;1202;23128;-76
2021/03/27 01:05:01;;;;;;;102.80;50.03;;;;;;;4.22;71.20;98781.50;115070;1201;23096;-76
2021/03/27 01:07:49;;;;;;;108.73;51.57;;;;;;;4.20;71.39;98773.59;115074;1202;26503;-76
2021/03/27 01:11:01;;;;;;;115.70;52.07;;;;;;;4.21;71.07;98766.34;115042;1201;26112;-77
2021/03/27 01:13:54;;;;;;;102.80;46.23;;;;;;;4.22;71.39;98766.14;115109;1200;26229;-77
2021/03/27 01:16:34;;;;;;;107.63;50.53;;;;;;;4.24;71.32;98764.08;115068;1202;23221;-77
2021/03/27 01:19:11;;;;;;;101.70;48.37;;;;;;;4.24;71.38;98769.47;115132;1202;26610;-77
2021/03/27 01:21:40;;;;;;;76.13;34.17;;;;;;;4.07;71.85;98766.25;115069;1201;24705;-77
2021/03/27 01:24:13;;;;;;;;;;;;;;;3.88;71.51;98762.36;115160;1204;23269;-77
2021/03/27 01:27:25;;;;;;;101.13;48.37;;;;;;;3.78;71.55;98762.67;115017;1202;21753;-77
2021/03/27 01:30:07;;;;;;;112.50;51.00;;;;;;;3.76;72.11;98753.96;114945;1200;25675;-77
2021/03/27 01:32:49;;;;;;;104.25;48.30;;;;;;;3.78;72.60;98756.47;114835;1201;23133;-77
2021/03/27 01:35:42;;;;;;;98.33;45.27;;;;;;;3.82;72.34;98756.91;115088;1202;23250;-77
2021/03/27 01:38:15;;;;;;;98.40;45.07;;;;;;;3.80;72.35;98747.15;115074;1200;23260;-77
2021/03/27 01:41:09;;;;;;;102.13;48.67;;;;;;;3.72;72.58;98741.06;115095;1202;23957;-77
2021/03/27 01:44:08;;;;;;;97.85;45.35;;;;;;;3.68;73.01;98751.39;115057;1201;23093;-77
2021/03/27 01:46:53;;;;;;;101.50;47.33;;;;;;;3.68;73.23;98743.31;115044;1202;23095;-77
2021/03/27 01:49:26;;;;;;;111.70;51.37;;;;;;;3.69;73.26;98747.69;115077;1196;26178;-77
2021/03/27 01:52:01;;;;;;;110.40;53.00;;;;;;;3.71;73.05;98744.80;115083;1202;23099;-77
2021/03/27 01:54:41;;;;;;;110.83;48.73;;;;;;;3.77;73.85;98741.31;115022;1202;23546;-77
2021/03/27 01:57:40;;;;;;;102.47;47.47;;;;;;;3.83;73.30;98743.25;115022;1202;23093;-77
2021/03/27 02:00:10;;;;;;;;;;;;;;;3.88;72.93;98742.65;114893;1204;23096;-78
2021/03/27 02:02:51;;;;;;;101.13;47.03;;;;;;;3.89;72.82;98737.07;115020;1202;21608;-77
2021/03/27 02:05:26;;;;;;;105.40;49.17;;;;;;;3.89;72.87;98742.45;115082;1196;23093;-77
2021/03/27 02:07:53;;;;;;;92.45;43.60;;;;;;;3.88;72.98;98735.42;115047;1202;24841;-77
2021/03/27 02:10:38;;;;;;;92.15;44.90;;;;;;;3.87;72.86;98731.05;115034;1202;23093;-77
2021/03/27 02:13:43;;;;;;;96.93;46.07;;;;;;;3.90;72.53;98732.53;115019;1196;24562;-77
2021/03/27 02:16:28;;;;;;;77.00;36.90;;;;;;;3.93;72.60;98730.28;114849;1202;23097;-77
2021/03/27 02:19:32;;;;;;;86.95;42.80;;;;;;;3.96;72.64;98740.65;115108;1203;23090;-77
2021/03/27 02:21:59;;;;;;;86.63;42.27;;;;;;;3.93;72.55;98737.52;115032;1201;23232;-77
2021/03/27 02:24:45;;;;;;;90.50;41.60;;;;;;;3.92;72.76;98739.38;115080;1200;24880;-77
2021/03/27 02:27:34;;;;;;;84.45;39.50;;;;;;;3.91;73.11;98742.27;115058;1202;23086;-77
2021/03/27 02:30:19;;;;;;;92.70;45.37;;;;;;;3.90;72.89;98736.05;115094;1200;23125;-77
2021/03/27 02:33:15;;;;;;;90.65;43.50;;;;;;;3.89;72.94;98737.07;115046;1202;25958;-77
2021/03/27 02:36:08;;;;;;;86.33;43.03;;;;;;;3.93;72.85;98724.89;115059;1201;27204;-77
2021/03/27 02:38:49;;;;;;;85.03;41.00;;;;;;;3.96;73.04;98723.66;115073;1196;23158;-77
2021/03/27 02:41:33;;;;;;;87.20;43.35;;;;;;;3.97;72.68;98731.55;115001;1202;23093;-77
2021/03/27 02:44:08;;;;;;;88.75;42.30;;;;;;;3.98;72.90;98729.68;115077;1199;23109;-77
2021/03/27 02:46:44;;;;;;;79.93;38.93;;;;;;;3.97;72.37;98728.03;114998;1202;23102;-77
2021/03/27 02:49:37;;;;;;;79.90;39.00;;;;;;;3.94;72.26;98720.33;114783;1201;23318;-77
2021/03/27 02:52:26;;;;;;;88.20;41.00;;;;;;;3.91;72.47;98726.95;115120;1200;24855;-77
2021/03/27 02:55:06;;;;;;;78.15;40.28;;;;;;;3.87;72.71;98720.27;114867;1202;23088;-77
2021/03/27 02:58:01;;;;;;;80.87;40.70;;;;;;;3.89;72.67;98720.91;114849;1202;26198;-77
2021/03/27 03:01:05;;;;;;;72.63;36.60;;;;;;;3.91;72.58;98720.71;115136;1200;23169;-77
2021/03/27 03:03:55;;;;;;;74.40;35.37;;;;;;;3.94;72.51;98718.45;114823;1202;23086;-77
2021/03/27 03:06:34;;;;;;;70.30;35.90;;;;;;;3.96;72.27;98715.57;115046;1200;23231;-77
2021/03/27 03:09:46;;;;;;;71.00;33.53;;;;;;;3.96;72.28;98713.70;115110;1202;22954;-76
2021/03/27 03:12:18;;;;;;;64.35;33.55;;;;;;;3.96;72.14;98713.70;115054;1202;23137;-76
2021/03/27 03:14:45;;;;;;;58.67;31.43;;;;;;;3.93;72.31;98711.42;114878;1202;24542;-76
2021/03/27 03:17:31;;;;;;;63.60;29.95;;;;;;;3.92;72.02;98714.31;115111;1200;26143;-76
2021/03/27 03:20:24;;;;;;;63.23;31.93;;;;;;;3.90;72.00;98711.80;115099;1202;23093;-76
2021/03/27 03:23:04;;;;;;;61.85;32.15;;;;;;;3.90;72.25;98702.91;115050;1197;23090;-76
2021/03/27 03:25:34;;;;;;;54.13;27.67;;;;;;;3.92;72.43;98707.05;114834;1202;26617;-76
2021/03/27 03:28:19;;;;;;;58.53;28.37;;;;;;;3.94;71.97;98699.59;115156;1201;23290;-76
2021/03/27 03:31:02;;;;;;;60.53;30.23;;;;;;;3.96;72.45;98702.10;115047;1201;24749;-76
2021/03/27 03:33:29;;;;;;;62.17;31.00;;;;;;;3.91;72.23;98702.70;115032;1202;23205;-76
2021/03/27 03:36:00;;;;;;;60.30;29.53;;;;;;;3.88;72.16;98692.31;115065;1201;23089;-76
2021/03/27 03:39:19;;;;;;;54.53;28.57;;;;;;;3.84;72.08;98693.72;115027;1201;23096;-76
2021/03/27 03:41:54;;;;;;;53.30;25.70;;;;;;;3.79;72.39;98690.80;114942;1203;24875;-76
2021/03/27 03:44:30;;;;;;;51.17;26.73;;;;;;;3.79;72.45;98690.80;115099;1202;23097;-78
2021/03/27 03:47:34;;;;;;;62.00;29.75;;;;;;;3.77;72.19;98682.91;115175;1200;24742;-76
2021/03/27 03:50:20;;;;;;;52.23;26.20;;;;;;;3.79;72.35;98685.41;114867;1196;23122;-76
2021/03/27 03:53:25;;;;;;;62.25;29.15;;;;;;;3.80;72.01;98681.67;115050;1202;26721;-76
2021/03/27 03:56:29;;;;;;;60.37;29.10;;;;;;;3.79;72.11;98685.41;115016;1200;26002;-76
2021/03/27 03:59:20;;;;;;;60.65;29.85;;;;;;;3.75;72.32;98679.59;115095;1197;23956;-76
2021/03/27 04:02:06;;;;;;;58.13;29.73;;;;;;;3.73;72.37;98678.10;115057;1200;23279;-76
2021/03/27 04:04:46;;;;;;;63.63;30.43;;;;;;;3.70;72.72;98679.34;115012;1202;23112;-76
2021/03/27 04:07:31;;;;;;;64.30;31.10;;;;;;;3.68;72.72;98683.23;115067;1197;23106;-76
2021/03/27 04:10:04;;;;;;;71.10;33.93;;;;;;;3.64;72.56;98676.59;115064;1202;23086;-76
2021/03/27 04:12:36;;;;;;;70.63;36.03;;;;;;;3.63;72.53;98683.84;114998;1202;26230;-76
2021/03/27 04:15:06;;;;;;;56.70;30.50;;;;;;;3.61;73.09;98675.09;114803;1202;23115;-77
2021/03/27 04:17:57;;;;;;;63.30;31.85;;;;;;;3.56;72.67;98678.39;114856;1199;23149;-77
2021/03/27 04:20:33;;;;;;;74.67;35.90;;;;;;;3.52;72.50;98671.70;114820;1202;24543;-78
2021/03/27 04:23:18;;;;;;;76.10;37.03;;;;;;;3.46;72.77;98677.88;114791;1202;23131;-77
2021/03/27 04:26:04;;;;;;;79.53;38.70;;;;;;;3.38;72.97;98692.32;115079;1201;23120;-77
2021/03/27 04:28:52;;;;;;;92.97;42.50;;;;;;;3.30;73.03;98691.62;114788;1199;23116;-77
2021/03/27 04:31:40;;;;;;;94.65;42.90;;;;;;;3.23;72.41;98692.38;114864;1203;24584;-77
2021/03/27 04:34:27;;;;;;;84.80;42.30;;;;;;;3.14;72.66;98696.22;114804;1202;23108;-77
2021/03/27 04:37:21;;;;;;;83.55;41.50;;;;;;;3.06;73.02;98685.56;115095;1202;23093;-77
2021/03/27 04:39:58;;;;;;;76.55;37.05;;;;;;;3.02;73.69;98692.36;115007;1202;23262;-77
2021/03/27 04:42:38;;;;;;;76.75;34.65;;;;;;;3.02;74.46;98695.05;114956;1202;24944;-77
2021/03/27 04:45:26;;;;;;;75.60;37.20;;;;;;;3.00;74.50;98691.72;114751;1198;23421;-77
2021/03/27 04:48:15;;;;;;;82.23;37.70;;;;;;;3.01;74.45;98683.47;114837;1202;23096;-77
2021/03/27 04:51:09;;;;;;;82.30;39.18;;;;;;;3.02;75.18;98682.42;115081;1202;23096;-77
2021/03/27 04:53:42;;;;;;;89.43;41.50;;;;;;;3.05;75.09;98686.61;114725;1202;23112;-77
2021/03/27 04:56:16;;;;;;;88.50;41.90;;;;;;;3.09;75.30;98682.50;114871;1202;27230;-77
2021/03/27 04:58:46;;;;;;;77.27;37.30;;;;;;;3.14;75.52;98682.77;115035;1202;23165;-76
2021/03/27 05:01:21;;;;;;;76.87;36.83;;;;;;;3.22;75.48;98689.87;115003;1203;26172;-77
2021/03/27 05:03:59;;;;;;;73.15;37.05;;;;;;;3.29;75.16;98681.86;115038;1202;23565;-77
2021/03/27 05:06:32;;;;;;;84.20;36.25;;;;;;;3.35;75.70;98683.80;114999;1202;23093;-77
2021/03/27 05:09:20;;;;;;;76.90;37.00;;;;;;;3.39;75.46;98685.89;114790;1200;26227;-76
2021/03/27 05:11:57;;;;;;;79.95;38.00;;;;;;;3.42;75.46;98685.52;115051;1200;23119;-78
2021/03/27 05:14:42;;;;;;;85.33;39.67;;;;;;;3.48;75.50;98683.91;115053;1202;24272;-77
2021/03/27 05:17:37;;;;;;;70.90;35.10;;;;;;;3.56;75.42;98686.47;115063;1197;23116;-77
2021/03/27 05:20:22;;;;;;;77.95;36.35;;;;;;;3.61;75.19;98686.72;115151;1196;23102;-77
2021/03/27 05:23:21;;;;;;;70.07;34.33;;;;;;;3.68;74.87;98677.85;115088;1197;25961;-77
2021/03/27 05:26:03;;;;;;;73.00;33.45;;;;;;;3.74;75.16;98671.70;115172;1202;23138;-77
2021/03/27 05:28:48;;;;;;;74.20;34.17;;;;;;;3.80;74.62;98676.29;114931;1200;26085;-77
2021/03/27 05:31:51;;;;;;;69.23;34.63;;;;;;;3.86;74.88;98683.60;115121;1200;23263;-77
2021/03/27 05:34:42;;;;;;;70.93;35.20;;;;;;;3.93;75.35;98679.09;115212;1203;23116;-77
2021/03/27 05:37:28;;;;;;;71.87;35.40;;;;;;;4.03;75.07;98672.52;115360;1197;26067;-77
2021/03/27 05:40:15;;;;;;;62.33;31.33;;;;;;;4.14;74.62;98674.64;115183;1199;25991;-77
2021/03/27 05:43:01;;;;;;;69.60;35.67;;;;;;;4.24;74.21;98671.61;115119;1200;24851;-77
2021/03/27 05:46:05;;;;;;;72.65;33.90;;;;;;;4.34;74.42;98683.69;115127;1200;23090;-77
2021/03/27 05:49:09;;;;;;;75.13;35.53;;;;;;;4.47;74.04;98680.22;114880;1200;23089;-77
2021/03/27 05:51:57;;;;;;;102.00;43.20;;;;;;;4.51;73.47;98676.08;115074;1197;23227;-77
2021/03/27 05:54:46;;;;;;;98.50;42.17;;;;;;;4.54;73.07;98672.99;114878;1196;23386;-77
2021/03/27 05:57:32;;;;;;;80.03;37.08;;;;;;;4.56;72.90;98680.88;114865;1200;23719;-77
2021/03/27 06:00:05;;;;;;;78.05;35.85;;;;;;;4.62;73.46;98682.80;115110;1203;23090;-77
2021/03/27 06:03:04;;;;;;;118.27;49.37;;;;;;;4.67;72.75;98680.30;115230;1202;23087;-77
2021/03/27 06:05:52;;;;;;;121.67;46.57;;;;;;;4.77;72.53;98679.11;115197;1202;24744;-77
2021/03/27 06:08:36;;;;;;;87.17;38.03;;;;;;;4.87;72.73;98674.14;114985;1197;26041;-77
2021/03/27 06:11:16;;;;;;;70.70;34.50;;;;;;;5.03;72.47;98672.94;115094;1197;23102;-77
2021/03/27 06:13:47;;;;;;;72.67;33.27;;;;;;;5.20;72.38;98678.80;114990;1202;23221;-77
2021/03/27 06:16:32;;;;;;;78.10;37.20;;;;;;;5.34;72.67;98680.48;115008;1202;23123;-77
2021/03/27 06:19:09;;;;;;;136.17;51.87;;;;;;;5.49;73.12;98678.44;115185;1198;23546;-77
2021/03/27 06:22:00;;;;;;;129.13;52.13;;;;;;;5.55;72.44;98667.84;115087;1202;23138;-77
2021/03/27 06:25:03;;;;;;;109.87;47.03;;;;;;;5.64;72.64;98672.00;115209;1197;23089;-77
2021/03/27 06:28:06;;;;;;;65.67;31.20;;;;;;;5.83;72.32;98673.03;114963;1200;26188;-77
2021/03/27 06:30:52;;;;;;;63.10;32.30;;;;;;;6.05;72.22;98674.47;114913;1202;23081;-77
2021/03/27 06:33:31;;;;;;;85.37;40.57;;;;;;;6.24;73.11;98678.19;114946;1200;27470;-77
2021/03/27 06:35:59;;;;;;;;;;;;;;;6.37;73.00;98680.02;115264;1204;23236;-77
2021/03/27 06:38:56;;;;;;;69.70;36.85;;;;;;;6.45;72.56;98674.39;115257;1197;21600;-77
2021/03/27 06:41:42;;;;;;;60.35;29.90;;;;;;;6.54;71.01;98672.28;115214;1197;24707;-77
2021/03/27 06:44:44;;;;;;;53.25;25.60;;;;;;;6.61;69.98;98664.15;115136;1202;23116;-77
2021/03/27 06:47:36;;;;;;;54.75;28.85;;;;;;;6.69;69.52;98665.77;115138;1197;25022;-77
2021/03/27 06:50:15;;;;;;;52.50;28.00;;;;;;;6.75;69.33;98673.05;115142;1202;23093;-77
2021/03/27 06:53:07;;;;;;;58.85;28.25;;;;;;;6.79;68.60;98671.56;115150;1202;23102;-77
2021/03/27 06:55:43;;;;;;;57.33;29.33;;;;;;;6.86;68.71;98664.23;115109;1200;26083;-77
2021/03/27 06:58:35;;;;;;;53.47;24.90;;;;;;;6.94;68.18;98668.56;115329;1202;22979;-77
2021/03/27 07:01:40;;;;;;;52.45;26.25;;;;;;;7.03;68.13;98668.11;115112;1202;23118;-77
2021/03/27 07:04:26;;;;;;;57.13;28.40;;;;;;;7.14;67.49;98666.59;114874;1202;23106;-77
2021/03/27 07:07:05;;;;;;;50.85;27.60;;;;;;;7.20;66.76;98664.88;115161;1200;23158;-77
2021/03/27 07:09:54;;;;;;;56.83;28.10;;;;;;;7.26;66.56;98666.73;115164;1202;23151;-77
2021/03/27 07:12:39;;;;;;;52.23;25.78;;;;;;;7.35;66.60;98668.13;115050;1202;23108;-77
2021/03/27 07:15:06;;;;;;;52.37;27.33;;;;;;;7.46;66.26;98676.60;115047;1201;23109;-77
2021/03/27 07:17:44;;;;;;;56.75;26.45;;;;;;;7.54;65.26;98670.89;115036;1202;24565;-77
2021/03/27 07:20:30;;;;;;;46.10;25.17;;;;;;;7.66;64.71;98660.18;114828;1202;23176;-77
2021/03/27 07:23:18;;;;;;;49.75;25.35;;;;;;;7.77;65.06;98664.88;115097;1196;26118;-77
2021/03/27 07:26:10;;;;;;;49.27;25.53;;;;;;;7.90;64.43;98662.05;115406;1202;23085;-77
2021/03/27 07:28:39;;;;;;;46.75;25.20;;;;;;;8.07;63.64;98661.47;115110;1196;23086;-77
2021/03/27 07:31:09;;;;;;;48.13;24.83;;;;;;;8.18;63.21;98667.00;115064;1202;23324;-77
2021/03/27 07:34:13;;;;;;;51.40;24.87;;;;;;;8.29;63.46;98659.18;115060;1202;23179;-77
2021/03/27 07:36:53;;;;;;;49.83;24.00;;;;;;;8.44;62.63;98654.22;115086;1202;23268;-77
2021/03/27 07:39:42;;;;;;;48.67;25.30;;;;;;;8.57;63.27;98658.69;114805;1203;23085;-77
2021/03/27 07:42:09;;;;;;;;;;;;;;;8.71;62.33;98660.18;115100;1205;23115;-78
2021/03/27 07:45:20;;;;;;;44.75;22.60;;;;;;;8.83;61.98;98653.97;115043;1201;21672;-77
2021/03/27 07:47:50;;;;;;;46.75;24.45;;;;;;;8.97;61.92;98654.63;114755;1202;23104;-77
2021/03/27 07:50:46;;;;;;;42.90;23.30;;;;;;;9.07;61.67;98647.58;115083;1202;23249;-77
2021/03/27 07:53:28;;;;;;;42.70;23.20;;;;;;;9.24;61.49;98646.92;115104;1200;23545;-77
2021/03/27 07:56:33;;;;;;;39.60;21.20;;;;;;;9.38;61.27;98647.55;115186;1202;26156;-77
2021/03/27 07:59:22;;;;;;;41.50;23.03;;;;;;;9.55;59.11;98647.72;115110;1202;23091;-77
2021/03/27 08:02:17;;;;;;;51.80;25.28;;;;;;;9.71;58.78;98638.88;115022;1202;23112;-77
2021/03/27 08:05:22;;;;;;;46.20;25.55;;;;;;;9.86;59.16;98639.25;114841;1197;27322;-77
2021/03/27 08:07:52;;;;;;;41.40;23.40;;;;;;;10.04;59.42;98637.48;114855;1202;23231;-77
2021/03/27 08:10:22;;;;;;;49.60;26.73;;;;;;;10.18;59.13;98641.61;115079;1200;23109;-77
2021/03/27 08:13:16;;;;;;;51.80;27.25;;;;;;;10.32;58.87;98646.81;115311;1200;23148;-78
2021/03/27 08:16:21;;;;;;;52.40;26.45;;;;;;;10.45;58.25;98652.84;115392;1200;23118;-78
2021/03/27 08:19:26;;;;;;;46.40;24.70;;;;;;;10.60;57.96;98640.61;115244;1202;25980;-78
2021/03/27 08:22:30;;;;;;;44.90;24.00;;;;;;;10.75;56.44;98635.48;114980;1201;23131;-78
2021/03/27 08:25:05;;;;;;;40.20;21.80;;;;;;;10.91;55.34;98633.89;115329;1200;23100;-78
2021/03/27 08:27:48;;;;;;;44.35;23.65;;;;;;;11.07;55.37;98642.37;115224;1202;26719;-78
2021/03/27 08:30:53;;;;;;;36.67;18.57;;;;;;;11.24;54.45;98642.39;115270;1200;23105;-77
2021/03/27 08:33:59;;;;;;;41.65;21.70;;;;;;;11.44;53.78;98641.91;115210;1201;24561;-78
2021/03/27 08:36:54;;;;;;;38.10;21.50;;;;;;;11.64;53.98;98627.81;115270;1202;23096;-78
2021/03/27 08:39:46;;;;;;;29.90;16.85;;;;;;;11.80;52.08;98634.34;115226;1199;26590;-75
2021/03/27 08:42:50;;;;;;;34.40;19.50;;;;;;;11.99;52.65;98629.46;115091;1202;23164;-78
2021/03/27 08:45:17;;;;;;;33.70;18.10;;;;;;;12.18;51.18;98619.92;115005;1202;23231;-78
2021/03/27 08:48:15;;;;;;;30.95;17.45;;;;;;;12.37;51.54;98616.91;115030;1200;23092;-78
2021/03/27 08:51:20;;;;;;;31.77;18.53;;;;;;;12.53;50.76;98616.84;115102;1200;23113;-78
2021/03/27 08:54:05;;;;;;;32.83;18.13;;;;;;;12.72;49.96;98622.00;115034;1202;23085;-78
2021/03/27 08:56:47;;;;;;;29.30;16.35;;;;;;;12.89;48.39;98613.70;115107;1202;23093;-78
2021/03/27 08:59:34;;;;;;;29.20;16.60;;;;;;;13.04;48.71;98608.41;115023;1202;23093;-78
2021/03/27 09:02:46;;;;;;;30.30;16.90;;;;;;;13.20;48.71;98614.86;115038;1200;24689;-77
2021/03/27 09:05:25;;;;;;;26.10;15.00;;;;;;;13.35;47.72;98606.03;115297;1196;27207;-77
2021/03/27 09:08:01;;;;;;;28.15;17.88;;;;;;;13.51;47.61;98603.41;116235;1200;26271;-77
2021/03/27 09:10:47;;;;;;;31.50;17.90;;;;;;;13.65;47.17;98599.99;115551;1199;23135;-77
2021/03/27 09:13:25;;;;;;;32.45;18.95;;;;;;;13.77;46.14;98602.52;115171;1197;27227;-77
2021/03/27 09:16:11;;;;;;;32.10;18.15;;;;;;;13.92;46.30;98603.75;115240;1202;23224;-77
2021/03/27 09:18:53;;;;;;;29.47;17.00;;;;;;;14.07;46.12;98603.83;115622;1196;23736;-77
2021/03/27 09:21:51;;;;;;;27.20;16.90;;;;;;;14.23;44.93;98591.86;115294;1197;23111;-77
2021/03/27 09:24:48;;;;;;;32.80;18.50;;;;;;;14.41;45.39;98590.61;115103;1196;23224;-77
2021/03/27 09:27:43;;;;;;;29.65;17.60;;;;;;;14.64;45.09;98587.70;115411;1196;23377;-77
2021/03/27 09:30:41;;;;;;;31.55;17.95;;;;;;;14.81;44.11;98588.32;115637;1197;24880;-77
2021/03/27 09:33:34;;;;;;;28.90;17.43;;;;;;;15.00;43.46;98588.65;115260;1199;26032;-77
2021/03/27 09:36:10;;;;;;;33.10;15.10;;;;;;;15.16;42.18;98575.79;115231;1202;27324;-77
2021/03/27 09:39:06;;;;;;;29.90;17.30;;;;;;;15.34;41.44;98580.73;115522;1200;23197;-75
2021/03/27 09:42:11;;;;;;;27.70;16.70;;;;;;;15.50;41.59;98570.59;115221;1201;23236;-77
2021/03/27 09:45:01;;;;;;;24.13;14.30;;;;;;;15.69;40.20;98565.38;115180;1200;24991;-77
2021/03/27 09:48:06;;;;;;;21.80;13.30;;;;;;;15.85;40.47;98563.47;115281;1202;23115;-77
2021/03/27 09:50:42;;;;;;;24.23;13.75;;;;;;;16.05;40.01;98565.34;115251;1197;23094;-77
2021/03/27 09:53:21;;;;;;;23.77;12.97;;;;;;;16.23;39.09;98568.59;115320;1202;23082;-76
2021/03/27 09:55:51;;;;;;;25.20;13.33;;;;;;;16.39;39.58;98563.87;115290;1201;23081;-77
2021/03/27 09:58:39;;;;;;;24.88;14.33;;;;;;;16.56;38.73;98567.10;115321;1196;23120;-77
2021/03/27 10:01:25;;;;;;;21.43;13.23;;;;;;;16.67;37.20;98556.88;115342;1196;23209;-77
2021/03/27 10:04:23;;;;;;;18.93;12.25;;;;;;;16.78;36.45;98552.14;115247;1202;23089;-77
2021/03/27 10:07:11;;;;;;;23.30;12.20;;;;;;;16.89;36.75;98553.75;115385;1200;23089;-77
2021/03/27 10:09:52;;;;;;;16.28;10.35;;;;;;;17.03;36.66;98556.70;115312;1200;23181;-77
2021/03/27 10:12:50;;;;;;;19.97;11.40;;;;;;;17.15;35.81;98559.92;115181;1202;27294;-77
2021/03/27 10:15:32;;;;;;;22.20;12.50;;;;;;;17.33;35.27;98560.34;115032;1203;23180;-77
2021/03/27 10:18:16;;;;;;;20.68;11.65;;;;;;;17.43;34.51;98550.08;115380;1199;26037;-77
2021/03/27 10:21:02;;;;;;;17.13;11.03;;;;;;;17.55;34.68;98555.22;115095;1202;23334;-77
2021/03/27 10:23:32;;;;;;;16.67;10.83;;;;;;;17.64;34.75;98556.23;115137;1202;23136;-76
2021/03/27 10:26:17;;;;;;;19.23;11.05;;;;;;;17.74;34.09;98552.58;115652;1201;23092;-76
2021/03/27 10:28:51;;;;;;;15.70;9.35;;;;;;;17.85;32.41;98553.30;115320;1201;23273;-76
2021/03/27 10:31:25;;;;;;;15.50;9.73;;;;;;;17.93;33.00;98558.19;115311;1200;23304;-76
2021/03/27 10:34:20;;;;;;;18.13;10.47;;;;;;;18.05;31.89;98551.48;115403;1200;26005;-76
2021/03/27 10:37:26;;;;;;;20.03;11.47;;;;;;;18.01;32.16;98552.05;115262;1202;23115;-76
2021/03/27 10:40:33;;;;;;;17.10;11.43;;;;;;;17.92;33.09;98544.70;115369;1202;23098;-76
2021/03/27 10:43:26;;;;;;;16.30;10.93;;;;;;;17.91;32.35;98537.56;115363;1196;23103;-76
2021/03/27 10:46:10;;;;;;;13.10;8.68;;;;;;;17.98;32.75;98546.30;115511;1202;23098;-77
2021/03/27 10:48:42;;;;;;;30.95;9.85;;;;;;;18.07;32.02;98538.23;115303;1197;26218;-77
2021/03/27 10:51:59;;;;;;;13.05;7.83;;;;;;;18.19;31.34;98535.88;115377;1196;23125;-77
2021/03/27 10:54:51;;;;;;;9.63;6.98;;;;;;;18.29;29.83;98537.69;115090;1200;25990;-77
2021/03/27 10:57:48;;;;;;;15.88;7.85;;;;;;;18.23;29.62;98534.17;115605;1197;26354;-76
2021/03/27 11:00:42;;;;;;;12.18;7.10;;;;;;;18.19;29.57;98533.13;115324;1197;23095;-76
2021/03/27 11:03:31;;;;;;;10.58;7.18;;;;;;;18.31;31.03;98530.78;115656;1196;25958;-76
2021/03/27 11:06:31;;;;;;;14.30;8.35;;;;;;;18.36;29.92;98527.13;115282;1196;23113;-76
2021/03/27 11:09:17;;;;;;;12.15;7.68;;;;;;;18.45;30.27;98524.53;115115;1200;23163;-76
2021/03/27 11:12:22;;;;;;;11.25;7.05;;;;;;;18.71;29.12;98536.88;115295;1199;23338;-76
2021/03/27 11:15:06;;;;;;;8.07;5.53;;;;;;;19.07;28.19;98533.66;115089;1202;23096;-76
2021/03/27 11:17:42;;;;;;;7.80;5.30;;;;;;;19.38;27.83;98526.83;115088;1201;23147;-76
2021/03/27 11:20:23;;;;;;;10.03;5.60;;;;;;;19.54;26.77;98522.67;115071;1202;23082;-76
2021/03/27 11:23:28;;;;;;;11.80;6.18;;;;;;;19.55;27.40;98521.56;115110;1201;27169;-76
2021/03/27 11:26:18;;;;;;;10.20;5.83;;;;;;;19.44;26.82;98529.20;114998;1200;26520;-76
2021/03/27 11:28:55;;;;;;;10.53;5.33;;;;;;;19.32;24.96;98529.67;115047;1202;23118;-76
2021/03/27 11:31:44;;;;;;;7.95;4.88;;;;;;;19.25;25.19;98540.27;115126;1197;23128;-77
2021/03/27 11:34:49;;;;;;;9.10;5.77;;;;;;;19.12;25.36;98533.58;115332;1200;26120;-77
2021/03/27 11:37:54;;;;;;;9.25;5.75;;;;;;;19.09;26.20;98533.36;115403;1196;23147;-76
2021/03/27 11:40:46;;;;;;;9.10;5.90;;;;;;;19.02;25.35;98530.97;115263;1200;26182;-76
2021/03/27 11:43:25;;;;;;;9.98;6.83;;;;;;;19.01;25.63;98532.08;115155;1196;23174;-78
2021/03/27 11:45:57;;;;;;;;;;;;;;;19.05;26.28;98533.14;115293;1204;25105;-77
2021/03/27 11:48:34;;;;;;;9.98;6.80;;;;;;;19.06;26.25;98526.48;115051;1200;21601;-77
2021/03/27 11:51:12;;;;;;;8.08;4.98;;;;;;;19.12;26.14;98535.50;115054;1196;26029;-77
2021/03/27 11:53:57;;;;;;;9.45;5.45;;;;;;;19.18;25.90;98528.80;115022;1202;23153;-77
2021/03/27 11:56:42;;;;;;;16.28;6.50;;;;;;;19.23;24.80;98544.44;115024;1196;23103;-77
2021/03/27 12:02:57;;;;;;;10.58;6.10;;;;;;;19.44;25.22;98533.89;115068;1202;23093;-77
2021/03/27 12:05:44;;;;;;;9.45;5.78;;;;;;;19.64;24.76;98530.80;115061;1196;23098;-77
2021/03/27 12:08:30;;;;;;;11.85;5.68;;;;;;;19.78;24.55;98536.39;115069;1202;23090;-77
2021/03/27 12:11:19;;;;;;;9.28;5.35;;;;;;;19.91;24.71;98520.95;115066;1201;23116;-77
2021/03/27 12:14:03;;;;;;;8.00;5.77;;;;;;;20.03;24.93;98525.98;115023;1200;26149;-77
2021/03/27 12:16:42;;;;;;;9.10;5.73;;;;;;;19.99;23.06;98528.55;114834;1203;23254;-77
2021/03/27 12:19:26;;;;;;;10.75;6.48;;;;;;;20.02;23.12;98527.91;115018;1203;23102;-77
2021/03/27 12:22:01;;;;;;;13.40;5.63;;;;;;;20.07;23.64;98518.72;115064;1197;23139;-77
2021/03/27 12:24:43;;;;;;;9.13;5.93;;;;;;;20.11;24.20;98530.79;114849;1200;23223;-77
2021/03/27 12:27:29;;;;;;;8.93;5.50;;;;;;;20.20;24.71;98520.67;114897;1199;23103;-77
2021/03/27 12:30:13;;;;;;;10.85;5.98;;;;;;;20.25;24.09;98528.03;115059;1202;25031;-77
2021/03/27 12:32:49;;;;;;;7.88;5.85;;;;;;;20.25;23.64;98531.61;115117;1201;23237;-77
2021/03/27 12:35:25;;;;;;;8.83;5.00;;;;;;;20.23;22.76;98533.87;115131;1201;23305;-77
2021/03/27 12:38:07;;;;;;;9.25;6.15;;;;;;;20.28;23.11;98528.23;115048;1202;23160;-77
2021/03/27 12:41:00;;;;;;;9.25;5.35;;;;;;;20.48;23.24;98531.71;115107;1202;23116;-77
2021/03/27 12:43:31;;;;;;;7.98;4.65;;;;;;;20.63;22.97;98533.38;115009;1202;24717;-77
2021/03/27 12:46:22;;;;;;;9.00;5.75;;;;;;;20.63;23.15;98544.45;115116;1201;23180;-77